Time;durP1;ratioP1;P1;durP2;ratioP2;P2;SDS_P1;SDS_P2;PMS_P1;PMS_P2;Temp;Humidity;BMP_temperature;BMP_pressure;BME280_temperature;BME280_humidity;BME280_pressure;Samples;Min_cycle;Max_cycle;Signal;HPM_P1;HPM_P2
2023/06/14 19:26:16;;;;;;;5.57;2.15;;;;;;;;;;5059855;28;20168;-82
2023/06/14 19:28:42;;;;;;;5.05;2.63;;;;;;;;;;5051753;28;20044;-83
2023/06/14 19:31:08;;;;;;;3.38;2.20;;;23.00;61.60;;;;;;5061710;28;20395;-85
2023/06/14 19:33:34;;;;;;;7.05;2.28;;;22.90;62.00;;;;;;5062617;28;20033;-81
2023/06/14 19:35:59;;;;;;;4.70;2.40;;;22.80;62.00;;;;;;5058858;28;20020;-81
2023/06/14 19:38:26;;;;;;;4.43;2.33;;;22.80;62.40;;;;;;5067803;28;20036;-80
2023/06/14 19:40:51;;;;;;;4.45;2.40;;;;;;;;;;5070619;28;20053;-80
2023/06/14 19:43:17;;;;;;;4.32;2.70;;;22.70;62.10;;;;;;5065451;28;20067;-79
2023/06/14 19:45:43;;;;;;;4.38;2.53;;;22.70;62.60;;;;;;5067691;28;20049;-79
2023/06/14 19:48:09;;;;;;;5.22;2.92;;;22.60;62.30;;;;;;5065285;28;20060;-82
2023/06/14 19:50:34;;;;;;;4.00;2.75;;;22.50;62.30;;;;;;5064122;28;20067;-82
2023/06/14 19:53:00;;;;;;;4.15;2.47;;;;;;;;;;5061820;28;20436;-81
2023/06/14 19:55:29;;;;;;;3.88;2.47;;;22.60;62.40;;;;;;5071523;28;20032;-84
2023/06/14 19:57:55;;;;;;;4.47;2.47;;;;;;;;;;5067433;28;20056;-82
2023/06/14 20:00:21;;;;;;;4.75;2.30;;;;;;;;;;5062135;28;20051;-80
2023/06/14 20:02:47;;;;;;;4.95;2.47;;;;;;;;;;5058858;28;20047;-79
2023/06/14 20:05:13;;;;;;;5.18;2.72;;;;;;;;;;5069597;28;20093;-81
2023/06/14 20:07:39;;;;;;;4.47;2.50;;;;;;;;;;5062879;28;20119;-84
2023/06/14 20:10:06;;;;;;;5.50;2.60;;;;;;;;;;5063726;28;20526;-87
2023/06/14 20:12:31;;;;;;;5.03;2.67;;;22.10;63.20;;;;;;5065948;28;20043;-80
2023/06/14 20:14:57;;;;;;;5.55;2.92;;;;;;;;;;5066022;28;20510;-83
2023/06/14 20:17:23;;;;;;;4.07;2.55;;;;;;;;;;5064206;28;20032;-84
2023/06/14 20:19:49;;;;;;;3.92;2.30;;;22.00;63.90;;;;;;5072055;28;20036;-82
2023/06/14 20:22:15;;;;;;;4.05;2.92;;;22.00;63.80;;;;;;5064981;28;20033;-85
2023/06/14 20:24:41;;;;;;;4.70;2.65;;;;;;;;;;5068953;28;20039;-81
2023/06/14 20:27:08;;;;;;;4.35;3.13;;;21.80;63.90;;;;;;5071988;28;20025;-84
2023/06/14 20:29:34;;;;;;;5.05;3.08;;;;;;;;;;5069198;28;20025;-81
2023/06/14 20:32:00;;;;;;;5.10;3.00;;;;;;;;;;5071431;28;20048;-85
2023/06/14 20:34:26;;;;;;;3.45;2.47;;;;;;;;;;5065859;28;20119;-85
2023/06/14 20:36:52;;;;;;;4.72;2.50;;;;;;;;;;5059008;28;20030;-83
2023/06/14 20:39:19;;;;;;;3.25;2.63;;;;;;;;;;5059729;28;20040;-84
2023/06/14 20:41:45;;;;;;;5.15;3.17;;;;;;;;;;5046869;28;20319;-82
2023/06/14 20:44:11;;;;;;;5.82;2.85;;;;;;;;;;5051878;28;20037;-82
2023/06/14 20:46:42;;;;;;;7.00;2.80;;;;;;;;;;5046129;28;20026;-83
2023/06/14 20:49:09;;;;;;;12.27;7.20;;;21.40;64.90;;;;;;5057675;28;20033;-83
2023/06/14 20:51:35;;;;;;;4.47;2.75;;;;;;;;;;5052136;28;20024;-84
2023/06/14 20:54:01;;;;;;;6.10;2.70;;;;;;;;;;5052074;28;20025;-82
2023/06/14 20:56:30;;;;;;;4.90;2.80;;;;;;;;;;5059686;28;20025;-86
2023/06/14 20:58:56;;;;;;;6.25;2.75;;;;;;;;;;5050242;28;20025;-83
2023/06/14 21:01:32;;;;;;;6.88;2.80;;;;;;;;;;5058691;28;20112;-83
2023/06/14 21:03:58;;;;;;;4.60;3.10;;;;;;;;;;5044988;28;20071;-85
2023/06/14 21:06:25;;;;;;;4.85;3.13;;;;;;;;;;5043746;28;20063;-83
2023/06/14 21:08:51;;;;;;;4.97;2.72;;;21.20;65.70;;;;;;5053218;28;20433;-80
2023/06/14 21:11:17;;;;;;;3.65;2.55;;;21.20;65.70;;;;;;5048494;28;20162;-82
2023/06/14 21:13:46;;;;;;;5.05;3.05;;;21.20;65.70;;;;;;5041198;28;20024;-83
2023/06/14 21:16:12;;;;;;;4.00;2.83;;;;;;;;;;5049354;28;20040;-80
2023/06/14 21:18:37;;;;;;;5.05;2.97;;;21.10;65.90;;;;;;5048815;28;20025;-83
2023/06/14 21:21:05;;;;;;;5.10;2.75;;;;;;;;;;5054851;28;20029;-83
2023/06/14 21:23:31;;;;;;;4.53;2.78;;;20.90;66.10;;;;;;5050687;28;20029;-83
2023/06/14 21:25:57;;;;;;;5.25;2.88;;;;;;;;;;5053957;28;20036;-81
2023/06/14 21:28:23;;;;;;;5.35;2.80;;;;;;;;;;5042645;28;20072;-83
2023/06/14 21:30:49;;;;;;;4.43;3.00;;;;;;;;;;5036464;28;20029;-84
2023/06/14 21:33:17;;;;;;;6.80;3.00;;;;;;;;;;5052012;28;20059;-82
2023/06/14 21:35:44;;;;;;;3.50;2.70;;;;;;;;;;5043202;28;20037;-84
2023/06/14 21:38:09;;;;;;;5.35;2.95;;;20.60;67.00;;;;;;5056723;28;20037;-82
2023/06/14 21:40:35;;;;;;;8.15;3.28;;;;;;;;;;5048843;28;20052;-84
2023/06/14 21:43:01;;;;;;;5.32;3.00;;;;;;;;;;5047906;28;20029;-86
2023/06/14 21:45:27;;;;;;;6.70;2.80;;;;;;;;;;5050805;28;20029;-82
2023/06/14 21:47:53;;;;;;;4.25;3.00;;;;;;;;;;5044168;28;20403;-80
2023/06/14 21:50:19;;;;;;;3.90;2.92;;;;;;;;;;5049094;28;20037;-80
2023/06/14 21:52:45;;;;;;;4.05;2.80;;;;;;;;;;5048909;28;20025;-86
2023/06/14 21:55:11;;;;;;;4.65;3.17;;;;;;;;;;5079769;22;20032;-79
2023/06/14 21:57:38;;;;;;;5.25;2.58;;;;;;;;;;5072212;28;20032;-79
2023/06/14 22:00:04;;;;;;;3.47;2.72;;;20.30;67.80;;;;;;5067984;28;20243;-86
2023/06/14 22:02:30;;;;;;;5.70;3.15;;;;;;;;;;5067954;28;20093;-82
2023/06/14 22:04:56;;;;;;;6.13;3.28;;;;;;;;;;5080718;28;20060;-79
2023/06/14 22:07:22;;;;;;;4.28;2.75;;;;;;;;;;5073340;28;20128;-84
2023/06/14 22:09:48;;;;;;;6.00;3.22;;;20.10;68.40;;;;;;5074092;28;20579;-85
2023/06/14 22:12:15;;;;;;;5.55;3.30;;;20.00;68.70;;;;;;5065610;28;20032;-81
2023/06/14 22:14:43;;;;;;;5.78;3.33;;;20.00;68.80;;;;;;5062905;28;20028;-82
2023/06/14 22:17:08;;;;;;;5.95;3.05;;;20.00;69.30;;;;;;5072972;28;20029;-82
2023/06/14 22:19:37;;;;;;;9.45;3.08;;;20.00;69.70;;;;;;5064896;28;20028;-85
2023/06/14 22:22:03;;;;;;;4.45;2.80;;;;;;;;;;5075754;28;20028;-81
2023/06/14 22:24:29;;;;;;;5.00;3.10;;;;;;;;;;5076991;28;20032;-79
2023/06/14 22:26:56;;;;;;;5.05;3.17;;;;;;;;;;5071728;28;20499;-79
2023/06/14 22:29:22;;;;;;;6.28;2.80;;;19.60;70.20;;;;;;5072175;28;20013;-81
2023/06/14 22:31:49;;;;;;;5.85;3.03;;;;;;;;;;5079050;28;20025;-83
2023/06/14 22:34:15;;;;;;;4.05;2.83;;;;;;;;;;5078168;28;20044;-82
2023/06/14 22:36:41;;;;;;;5.15;3.20;;;;;;;;;;5067974;28;20039;-82
2023/06/14 22:39:08;;;;;;;4.25;2.90;;;;;;;;;;5070886;28;20055;-81
2023/06/14 22:41:40;;;;;;;6.65;3.10;;;;;;;;;;5063809;28;20068;-82
2023/06/14 22:44:05;;;;;;;5.70;3.08;;;19.40;71.00;;;;;;5066589;28;20033;-83
2023/06/14 22:46:31;;;;;;;3.60;2.55;;;20.00;71.90;;;;;;5070057;28;20115;-80
2023/06/14 22:48:58;;;;;;;5.53;2.83;;;18.40;71.00;;;;;;5066080;28;20020;-83
2023/06/14 22:51:25;;;;;;;4.38;2.90;;;19.30;71.20;;;;;;5069523;28;20398;-81
2023/06/14 22:53:51;;;;;;;4.53;2.80;;;19.30;71.30;;;;;;5057545;28;20024;-78
2023/06/14 22:56:19;;;;;;;3.28;2.30;;;19.20;71.50;;;;;;5056900;28;20064;-80
2023/06/14 22:58:49;;;;;;;3.47;2.63;;;19.20;71.60;;;;;;5072122;28;20478;-80
2023/06/14 23:01:26;;;;;;;3.67;2.55;;;19.10;71.60;;;;;;5066667;28;20040;-80
2023/06/14 23:03:53;;;;;;;3.63;2.70;;;;;;;;;;5064165;28;20029;-79
2023/06/14 23:06:25;;;;;;;5.53;3.03;;;;;;;;;;5062136;28;20044;-79
2023/06/14 23:08:55;;;;;;;3.75;2.70;;;;;;;;;;5063739;28;20064;-78
2023/06/14 23:11:21;;;;;;;;;;;19.10;71.80;;;;;;5065931;28;20047;-80
2023/06/14 23:13:48;;;;;;;4.53;2.80;;;19.10;71.90;;;;;;5071192;28;19917;-80
2023/06/14 23:16:14;;;;;;;4.28;2.20;;;19.50;72.50;;;;;;5060757;28;20025;-81
2023/06/14 23:18:40;;;;;;;3.70;2.80;;;19.10;72.00;;;;;;5068573;28;20027;-80
2023/06/14 23:21:06;;;;;;;5.30;2.45;;;19.10;72.40;;;;;;5069279;28;20100;-84
2023/06/14 23:23:35;;;;;;;5.03;2.60;;;19.10;72.00;;;;;;5072289;28;20024;-83
2023/06/14 23:26:03;;;;;;;5.40;2.67;;;19.10;72.20;;;;;;5073509;28;20432;-81
2023/06/14 23:28:33;;;;;;;7.53;2.95;;;;;;;;;;5068685;28;20333;-79
2023/06/14 23:31:07;;;;;;;5.20;2.70;;;;;;;;;;5062222;28;20032;-82
2023/06/14 23:33:32;;;;;;;4.75;2.72;;;;;;;;;;5066486;28;20091;-82
2023/06/14 23:36:00;;;;;;;6.15;2.97;;;;;;;;;;5065675;28;20462;-81
2023/06/14 23:38:29;;;;;;;3.75;2.80;;;;;;;;;;5066493;28;20116;-80
2023/06/14 23:40:56;;;;;;;5.40;3.10;;;;;;;;;;5061373;28;20029;-84
2023/06/14 23:43:23;;;;;;;3.90;2.60;;;;;;;;;;5068617;28;20040;-82
2023/06/14 23:45:52;;;;;;;3.65;2.70;;;;;;;;;;5067495;28;20056;-82
2023/06/14 23:48:20;;;;;;;4.82;3.08;;;;;;;;;;5070600;28;20063;-81
2023/06/14 23:50:46;;;;;;;5.45;3.00;;;;;;;;;;5069101;28;20025;-83
2023/06/14 23:53:12;;;;;;;3.75;2.40;;;;;;;;;;5078753;28;20049;-80
2023/06/14 23:55:39;;;;;;;4.60;2.85;;;;;;;;;;5067719;28;20029;-81
2023/06/14 23:58:05;;;;;;;5.47;2.50;;;19.00;72.80;;;;;;5072133;28;20055;-81
